Time;durP1;ratioP1;P1;durP2;ratioP2;P2;SDS_P1;SDS_P2;PMS_P1;PMS_P2;Temp;Humidity;BMP_temperature;BMP_pressure;BME280_temperature;BME280_humidity;BME280_pressure;Samples;Min_cycle;Max_cycle;Signal;HPM_P1;HPM_P2
2023/10/02 00:00:43;;;;;;;0.10;0.10;;;;;;;;;;5122906;27;20030;-90
2023/10/02 00:03:09;;;;;;;0.10;0.10;;;;;;;;;;5129541;27;20083;-90
2023/10/02 00:05:50;;;;;;;0.10;0.10;;;;;;;;;;5106744;27;20127;-90
2023/10/02 00:08:31;;;;;;;0.10;0.10;;;;;;;;;;5107931;27;20040;-90
2023/10/02 00:11:05;;;;;;;0.10;0.10;;;;;;;;;;5108661;27;20496;-89
2023/10/02 00:13:32;;;;;;;0.10;0.10;;;;;;;;;;5124652;27;20048;-90
2023/10/02 00:15:59;;;;;;;0.10;0.10;;;;;;;;;;5123672;27;20092;-89
2023/10/02 00:18:27;;;;;;;0.10;0.10;;;;;;;;;;5106505;28;20060;-89
2023/10/02 00:21:17;;;;;;;0.10;0.10;;;;;;;;;;5123297;27;20040;-89
2023/10/02 00:23:59;;;;;;;0.10;0.10;;;;;;;;;;5125791;27;20105;-91
2023/10/02 00:26:25;;;;;;;0.22;0.22;;;;;;;;;;5108925;27;20089;-89
2023/10/02 00:28:51;;;;;;;0.10;0.10;;;;;;;;;;5106492;28;20051;-89
2023/10/02 00:31:33;;;;;;;0.10;0.10;;;;;;;;;;5122922;27;20036;-92
2023/10/02 00:34:00;;;;;;;0.10;0.10;;;;;;;;;;5107772;27;20083;-90
2023/10/02 00:36:29;;;;;;;0.10;0.10;;;;;;;;;;5105879;27;20054;-89
2023/10/02 00:39:24;;;;;;;0.10;0.10;;;;;;;;;;5123197;27;20051;-89
2023/10/02 00:42:10;;;;;;;0.10;0.10;;;;;;;;;;5125541;27;20075;-90
2023/10/02 00:44:51;;;;;;;0.20;0.20;;;;;;;;;;5125282;27;20166;-92
2023/10/02 00:47:16;;;;;;;0.20;0.20;;;;;;;;;;5125266;27;20055;-89
2023/10/02 00:49:42;;;;;;;0.20;0.20;;;;;;;;;;5122868;27;20037;-90
2023/10/02 00:52:09;;;;;;;0.10;0.10;;;;;;;;;;5122744;27;20048;-89
2023/10/02 00:54:35;;;;;;;0.10;0.10;;;;;;;;;;5105588;27;20036;-90
2023/10/02 00:57:16;;;;;;;0.10;0.10;;;;;;;;;;5105620;28;20036;-90
2023/10/02 00:59:44;;;;;;;0.17;0.17;;;;;;;;;;5108008;27;20048;-91
2023/10/02 01:02:17;;;;;;;0.10;0.10;;;;;;;;;;5105583;28;20473;-91
2023/10/02 01:04:43;;;;;;;0.43;0.43;;;;;;;;;;5120451;27;20077;-91
2023/10/02 01:07:15;;;;;;;0.10;0.10;;;;;;;;;;5137410;27;20449;-91
2023/10/02 01:09:41;;;;;;;0.10;0.10;;;;;;;;;;5120984;27;20125;-91
2023/10/02 01:12:10;;;;;;;0.10;0.10;;;;;;;;;;5136932;27;20042;-91
2023/10/02 01:14:51;;;;;;;0.10;0.10;;;;;;;;;;5119688;27;20039;-91
2023/10/02 01:17:20;;;;;;;0.10;0.10;;;;;;;;;;5122033;27;20055;-91
2023/10/02 01:19:57;;;;;;;0.10;0.10;;;;;;;;;;5120098;27;20114;-92
2023/10/02 01:22:27;;;;;;;0.10;0.10;;;;;;;;;;5120780;27;20043;-91
2023/10/02 01:25:15;;;;;;;0.10;0.10;;;;;;;;;;5119588;27;20197;-92
2023/10/02 01:27:42;;;;;;;0.20;0.20;;;;;;;;;;5122020;27;20039;-89
2023/10/02 01:30:21;;;;;;;0.10;0.10;;;;;;;;;;5119356;27;20050;-91
2023/10/02 01:33:12;;;;;;;0.10;0.10;;;;;;;;;;5120652;27;20051;-90
2023/10/02 01:35:46;;;;;;;0.10;0.10;;;;;;;;;;5138398;27;20046;-90
2023/10/02 01:38:15;;;;;;;0.10;0.10;;;;;;;;;;5119639;27;20046;-89
2023/10/02 01:40:41;;;;;;;0.10;0.10;;;;;;;;;;5136309;27;20395;-89
2023/10/02 01:43:13;;;;;;;0.10;0.10;;;;;;;;;;5153233;27;20046;-89
2023/10/02 01:46:03;;;;;;;0.10;0.10;;;;;;;;;;5119845;27;20103;-90
2023/10/02 01:48:40;;;;;;;0.10;0.10;;;;;;;;;;5153459;27;20494;-89
2023/10/02 01:51:50;;;;;;;0.10;0.10;;;;;;;;;;5137723;27;20155;-90
2023/10/02 01:53:56;;;;;;;0.20;0.20;;;;;;;;;;5130456;27;20496;-90
2023/10/02 01:56:27;;;;;;;0.10;0.10;;;;;;;;;;5139146;27;20050;-90
2023/10/02 01:58:53;;;;;;;0.10;0.10;;;;;;;;;;5137845;27;20043;-90
2023/10/02 02:01:20;;;;;;;0.10;0.10;;;;;;;;;;5136091;27;20031;-90
2023/10/02 02:03:48;;;;;;;0.10;0.10;;;;;;;;;;5136047;27;20129;-90
2023/10/02 02:06:17;;;;;;;0.10;0.10;;;;;;;;;;5136026;27;20402;-92
2023/10/02 02:08:47;;;;;;;0.95;0.82;;;;;;;;;;5119624;27;20043;-91
2023/10/02 02:11:20;;;;;;;0.20;0.20;;;;;;;;;;5119565;27;20471;-90
2023/10/02 02:13:55;;;;;;;0.10;0.10;;;;;;;;;;5119016;27;20487;-92
2023/10/02 02:16:22;;;;;;;0.10;0.10;;;;;;;;;;5118814;27;20041;-91
2023/10/02 02:18:53;;;;;;;0.10;0.10;;;;;;;;;;5119055;27;20544;-90
2023/10/02 02:21:20;;;;;;;0.10;0.10;;;;;;;;;;5136845;27;20043;-92
2023/10/02 02:23:46;;;;;;;0.10;0.10;;;;;;;;;;5136011;27;20498;-90
2023/10/02 02:26:21;;;;;;;0.10;0.10;;;;;;;;;;5136880;27;20532;-91
2023/10/02 02:28:51;;;;;;;0.10;0.10;;;;;;;;;;5123706;27;20471;-90
2023/10/02 02:31:29;;;;;;;0.13;0.13;;;;;;;;;;5122569;27;20047;-90
2023/10/02 02:33:57;;;;;;;0.20;0.20;;;;;;;;;;5123722;27;20045;-89
2023/10/02 02:36:25;;;;;;;0.10;0.10;;;;;;;;;;5139666;27;20065;-92
2023/10/02 02:39:05;;;;;;;0.10;0.10;;;;;;;;;;5122841;27;20046;-89
2023/10/02 02:41:31;;;;;;;0.10;0.10;;;;;;;;;;5124458;27;20035;-89
2023/10/02 02:43:57;;;;;;;0.10;0.10;;;;;;;;;;5139587;27;20138;-89
2023/10/02 02:46:23;;;;;;;0.10;0.10;;;;;;;;;;5139588;27;20073;-91
2023/10/02 02:48:55;;;;;;;0.30;0.30;;;;;;;;;;5139660;27;20042;-89
2023/10/02 02:51:23;;;;;;;0.10;0.10;;;;;;;;;;5139398;27;20061;-89
2023/10/02 02:53:51;;;;;;;0.10;0.10;;;;;;;;;;5122280;27;20034;-90
2023/10/02 02:56:23;;;;;;;0.10;0.10;;;;;;;;;;5122240;27;20401;-90
2023/10/02 02:58:50;;;;;;;0.10;0.10;;;;;;;;;;5140288;27;20475;-90
2023/10/02 03:01:29;;;;;;;0.10;0.10;;;;;;;;;;5122132;27;20074;-89
2023/10/02 03:03:56;;;;;;;0.13;0.13;;;;;;;;;;5122441;27;20115;-92
2023/10/02 03:06:22;;;;;;;0.20;0.20;;;;;;;;;;5139325;27;20046;-92
2023/10/02 03:08:58;;;;;;;0.10;0.10;;;;;;;;;;5139119;27;20048;-90
2023/10/02 03:11:28;;;;;;;0.10;0.10;;;;;;;;;;5138987;27;20046;-92
2023/10/02 03:14:11;;;;;;;0.10;0.10;;;;;;;;;;5139645;27;20042;-90
2023/10/02 03:16:38;;;;;;;0.10;0.10;;;;;;;;;;5124327;27;20074;-90
2023/10/02 03:19:07;;;;;;;0.10;0.10;;;;;;;;;;5121813;27;20043;-90
2023/10/02 03:21:34;;;;;;;0.10;0.10;;;;;;;;;;5122268;27;20045;-89
2023/10/02 03:24:01;;;;;;;0.10;0.10;;;;;;;;;;5121775;27;20085;-90
2023/10/02 03:26:40;;;;;;;0.10;0.10;;;;;;;;;;5121734;27;20039;-90
2023/10/02 03:29:16;;;;;;;0.50;0.50;;;;;;;;;;5123793;27;20035;-91
2023/10/02 03:31:52;;;;;;;3.53;0.30;;;;;;;;;;5140161;27;20046;-92
2023/10/02 03:34:27;;;;;;;0.10;0.10;;;;;;;;;;5122902;27;20047;-91
2023/10/02 03:36:55;;;;;;;0.20;0.20;;;;;;;;;;5138862;27;20092;-89
2023/10/02 03:39:51;;;;;;;0.10;0.10;;;;;;;;;;5121016;27;20038;-90
2023/10/02 03:42:12;;;;;;;0.10;0.10;;;;;;;;;;5142382;27;20439;-90
2023/10/02 03:44:39;;;;;;;0.10;0.10;;;;;;;;;;5138260;27;20049;-89
2023/10/02 03:47:05;;;;;;;0.10;0.10;;;;;;;;;;5138438;27;20046;-89
2023/10/02 03:49:34;;;;;;;3.63;0.20;;;;;;;;;;5138182;27;20042;-89
2023/10/02 03:52:00;;;;;;;0.10;0.10;;;;;;;;;;5138188;27;20047;-89
2023/10/02 03:54:29;;;;;;;0.10;0.10;;;;;;;;;;5120976;27;20078;-89
2023/10/02 03:56:55;;;;;;;0.10;0.10;;;;;;;;;;5121369;27;20483;-90
2023/10/02 03:59:28;;;;;;;0.10;0.10;;;;;;;;;;5138353;27;20041;-88
2023/10/02 04:01:57;;;;;;;0.10;0.10;;;;;;;;;;5125106;27;20035;-90
2023/10/02 04:04:24;;;;;;;0.10;0.10;;;;;;;;;;5127144;27;20422;-90
2023/10/02 04:06:53;;;;;;;0.43;0.30;;;;;;;;;;5127965;27;20125;-89
2023/10/02 04:11:46;;;;;;;0.10;0.10;;;;;;;;;;5138474;27;20491;-89
2023/10/02 04:14:18;;;;;;;0.10;0.10;;;;;;;;;;5120586;27;20039;-90
2023/10/02 04:16:46;;;;;;;0.10;0.10;;;;;;;;;;5121799;27;20402;-89
2023/10/02 04:19:15;;;;;;;0.10;0.10;;;;;;;;;;5137768;27;20038;-89
2023/10/02 04:21:42;;;;;;;0.10;0.10;;;;;;;;;;5121193;27;20035;-90
2023/10/02 04:24:09;;;;;;;0.10;0.10;;;;;;;;;;5137489;27;20479;-91
2023/10/02 04:26:36;;;;;;;0.10;0.10;;;;;;;;;;5155298;27;20046;-91
2023/10/02 04:29:25;;;;;;;0.10;0.10;;;;;;;;;;5138097;27;20042;-91
2023/10/02 04:34:37;;;;;;;0.10;0.10;;;;;;;;;;5139877;27;20038;-90
2023/10/02 04:37:19;;;;;;;0.30;0.30;;;;;;;;;;5120209;27;20047;-89
2023/10/02 04:39:52;;;;;;;0.10;0.10;;;;;;;;;;5122513;27;20078;-89
2023/10/02 04:42:25;;;;;;;0.10;0.10;;;;;;;;;;5121315;27;20448;-89
2023/10/02 04:44:56;;;;;;;;;;;;;;;;;;5137149;27;20093;-91
2023/10/02 04:47:23;;;;;;;0.10;0.10;;;;;;;;;;5154525;27;20271;-89
2023/10/02 04:55:23;;;;;;;0.10;0.10;;;;;;;;;;5154286;27;20085;-91
2023/10/02 04:57:54;;;;;;;0.10;0.10;;;;;;;;;;5120576;27;20031;-91
2023/10/02 05:00:28;;;;;;;0.10;0.10;;;;;;;;;;5120200;27;20471;-91
2023/10/02 05:03:09;;;;;;;0.20;0.20;;;;;;;;;;5120907;27;20443;-90
2023/10/02 05:05:48;;;;;;;0.10;0.10;;;;;;;;;;5122285;27;20049;-90
2023/10/02 05:08:19;;;;;;;0.10;0.10;;;;;;;;;;5106625;27;20048;-91
2023/10/02 05:10:50;;;;;;;0.10;0.10;;;;;;;;;;5123224;27;20089;-90
2023/10/02 05:13:45;;;;;;;0.10;0.10;;;;;;;;;;5105168;28;20045;-90
2023/10/02 05:16:11;;;;;;;0.10;0.10;;;;;;;;;;5125294;27;20118;-90
2023/10/02 05:18:37;;;;;;;;;;;;;;;;;;5106645;28;20041;-91
2023/10/02 05:21:04;;;;;;;0.10;0.10;;;;;;;;;;5122738;27;19921;-91
2023/10/02 05:23:30;;;;;;;0.20;0.20;;;;;;;;;;5122664;27;20481;-91
2023/10/02 05:26:05;;;;;;;0.10;0.10;;;;;;;;;;5105877;28;20153;-92
2023/10/02 05:28:43;;;;;;;0.20;0.20;;;;;;;;;;5105556;28;20127;-92
2023/10/02 05:31:11;;;;;;;0.10;0.10;;;;;;;;;;5107685;27;20047;-91
2023/10/02 05:33:38;;;;;;;0.10;0.10;;;;;;;;;;5124133;27;20044;-92
2023/10/02 05:36:08;;;;;;;0.10;0.10;;;;;;;;;;5123387;27;20040;-91
2023/10/02 05:38:35;;;;;;;0.20;0.20;;;;;;;;;;5107185;27;20047;-91
2023/10/02 05:41:12;;;;;;;0.10;0.10;;;;;;;;;;5106720;27;20036;-92
2023/10/02 05:43:55;;;;;;;0.10;0.10;;;;;;;;;;5106904;28;20063;-92
2023/10/02 05:46:21;;;;;;;0.10;0.10;;;;;;;;;;5125072;27;20045;-91
2023/10/02 05:49:00;;;;;;;0.10;0.10;;;;;;;;;;5105944;28;20037;-93
2023/10/02 05:51:45;;;;;;;0.20;0.20;;;;;;;;;;5107475;27;20541;-90
2023/10/02 05:54:11;;;;;;;0.10;0.10;;;;;;;;;;5125072;27;20045;-92
2023/10/02 05:56:37;;;;;;;0.47;0.47;;;;;;;;;;5125573;27;20044;-93
2023/10/02 05:59:12;;;;;;;0.17;0.17;;;;;;;;;;5109790;27;20179;-95
2023/10/02 06:01:38;;;;;;;0.10;0.10;;;;;;;;;;5108926;27;20053;-94
2023/10/02 06:04:05;;;;;;;0.10;0.10;;;;;;;;;;5122541;27;20143;-95
2023/10/02 06:06:44;;;;;;;0.10;0.10;;;;;;;;;;5128060;27;20122;-92
2023/10/02 06:09:14;;;;;;;0.20;0.20;;;;;;;;;;5125381;27;20078;-93
2023/10/02 06:14:26;;;;;;;0.10;0.10;;;;;;;;;;5133143;27;20039;-91
2023/10/02 06:16:55;;;;;;;0.10;0.10;;;;;;;;;;5119395;27;20092;-92
2023/10/02 06:19:22;;;;;;;0.10;0.10;;;;;;;;;;5097494;28;20150;-93
2023/10/02 06:24:27;;;;;;;0.10;0.10;;;;;;;;;;5113513;28;20488;-93
2023/10/02 06:27:13;;;;;;;0.10;0.10;;;;;;;;;;5098346;28;20036;-92
2023/10/02 06:29:47;;;;;;;0.10;0.10;;;;;;;;;;5097549;28;20043;-92
2023/10/02 06:32:19;;;;;;;0.10;0.10;;;;;;;;;;5111551;28;20082;-91
2023/10/02 06:34:47;;;;;;;0.10;0.10;;;;;;;;;;5094748;28;20287;-90
2023/10/02 06:37:19;;;;;;;0.10;0.10;;;;;;;;;;5111053;28;20040;-92
2023/10/02 06:40:14;;;;;;;0.10;0.10;;;;;;;;;;5094212;28;20036;-92
2023/10/02 06:42:49;;;;;;;0.10;0.10;;;;;;;;;;5096574;28;20035;-91
2023/10/02 06:45:17;;;;;;;0.10;0.10;;;;;;;;;;5116405;28;20042;-92
2023/10/02 06:47:44;;;;;;;0.10;0.10;;;;;;;;;;5097950;28;20523;-92
2023/10/02 06:50:31;;;;;;;0.10;0.10;;;;;;;;;;5114983;28;20050;-92
2023/10/02 06:52:59;;;;;;;0.10;0.10;;;;;;;;;;5101138;28;20497;-92
2023/10/02 06:55:27;;;;;;;0.10;0.10;;;;;;;;;;5097760;28;20039;-92
2023/10/02 06:57:53;;;;;;;0.10;0.10;;;;;;;;;;5097902;28;20053;-92
2023/10/02 07:00:20;;;;;;;0.10;0.10;;;;;;;;;;5097694;28;20039;-92
2023/10/02 07:03:06;;;;;;;0.10;0.10;;;;;;;;;;5096878;28;20061;-92
2023/10/02 07:05:32;;;;;;;0.10;0.10;;;;;;;;;;5114388;28;20043;-92
2023/10/02 07:08:01;;;;;;;0.10;0.10;;;;;;;;;;5114341;28;20031;-92
2023/10/02 07:10:29;;;;;;;0.10;0.10;;;;;;;;;;5097232;28;20039;-92
2023/10/02 07:12:55;;;;;;;0.10;0.10;;;;;;;;;;5097781;27;20039;-92
2023/10/02 07:15:26;;;;;;;0.10;0.10;;;;;;;;;;5100703;27;20039;-91
2023/10/02 07:18:00;;;;;;;0.10;0.10;;;;;;;;;;5101910;27;20035;-91
2023/10/02 07:20:42;;;;;;;0.10;0.10;;;;;;;;;;5102371;27;20256;-92
2023/10/02 07:23:13;;;;;;;0.10;0.10;;;;;;;;;;5103186;27;20031;-89
2023/10/02 07:25:39;;;;;;;0.10;0.10;;;;;;;;;;5118678;27;20364;-90
2023/10/02 07:28:05;;;;;;;0.10;0.10;;;;;;;;;;5100832;27;20066;-89
2023/10/02 07:30:32;;;;;;;0.10;0.10;;;;;;;;;;5117708;27;20126;-89
2023/10/02 07:33:07;;;;;;;0.20;0.20;;;;;;;;;;5117841;27;20060;-89
2023/10/02 07:35:34;;;;;;;0.17;0.17;;;;;;;;;;5101423;27;20130;-90
2023/10/02 07:38:02;;;;;;;0.10;0.10;;;;;;;;;;5100505;27;20039;-91
2023/10/02 07:40:46;;;;;;;0.10;0.10;;;;;;;;;;5101276;27;20084;-88
2023/10/02 07:43:13;;;;;;;0.10;0.10;;;;;;;;;;5102967;27;20043;-88
2023/10/02 07:45:39;;;;;;;0.10;0.10;;;;;;;;;;5100304;27;20035;-89
2023/10/02 07:48:08;;;;;;;0.10;0.10;;;;;;;;;;5120682;27;20039;-90
2023/10/02 07:50:38;;;;;;;0.10;0.10;;;;;;;;;;5102837;27;20038;-90
2023/10/02 07:53:05;;;;;;;0.10;0.10;;;;;;;;;;5117729;27;20372;-90
2023/10/02 07:55:46;;;;;;;0.10;0.10;;;;;;;;;;5116906;27;20050;-90
2023/10/02 07:58:13;;;;;;;0.10;0.10;;;;;;;;;;5100591;27;20057;-90
2023/10/02 08:00:42;;;;;;;0.10;0.10;;;;;;;;;;5117073;27;20118;-90
2023/10/02 08:05:56;;;;;;;0.10;0.10;;;;;;;;;;5105949;27;20045;-90
2023/10/02 08:08:25;;;;;;;0.20;0.20;;;;;;;;;;5086289;28;20045;-90
2023/10/02 08:10:52;;;;;;;0.10;0.10;;;;;;;;;;5102703;28;20497;-90
2023/10/02 08:13:32;;;;;;;0.10;0.10;;;;;;;;;;5086237;28;20124;-91
2023/10/02 08:15:58;;;;;;;0.10;0.10;;;;;;;;;;5105540;27;20049;-89
2023/10/02 08:18:26;;;;;;;0.10;0.10;;;;;;;;;;5102630;28;20040;-90
2023/10/02 08:20:53;;;;;;;0.10;0.10;;;;;;;;;;5086586;28;20332;-91
2023/10/02 08:23:22;;;;;;;0.20;0.20;;;;;;;;;;5102849;28;20048;-92
2023/10/02 08:26:02;;;;;;;0.10;0.10;;;;;;;;;;5085509;28;20072;-90
2023/10/02 08:28:33;;;;;;;0.10;0.10;;;;;;;;;;5086834;28;20096;-89
2023/10/02 08:31:02;;;;;;;0.10;0.10;;;;;;;;;;5102962;27;20045;-89
2023/10/02 08:33:30;;;;;;;0.10;0.10;;;;;;;;;;5119519;27;20128;-89
2023/10/02 08:35:56;;;;;;;0.10;0.10;;;;;;;;;;5101703;28;20045;-89
2023/10/02 08:38:22;;;;;;;0.10;0.10;;;;;;;;;;5085618;28;20075;-91
2023/10/02 08:40:57;;;;;;;0.10;0.10;;;;;;;;;;5102132;28;20037;-90
2023/10/02 08:43:26;;;;;;;0.10;0.10;;;;;;;;;;5103301;27;20041;-89
2023/10/02 08:45:52;;;;;;;0.20;0.20;;;;;;;;;;5084804;28;20044;-90
2023/10/02 08:48:20;;;;;;;0.10;0.10;;;;;;;;;;5085495;28;20375;-90
2023/10/02 08:50:50;;;;;;;0.30;0.30;;;;;;;;;;5085159;28;20045;-88
2023/10/02 08:53:23;;;;;;;0.20;0.20;;;;;;;;;;5102724;27;20374;-89
2023/10/02 08:58:19;;;;;;;0.20;0.20;;;;;;;;;;5102044;28;20410;-90
2023/10/02 09:03:41;;;;;;;0.10;0.10;;;;;;;;;;5102210;28;20053;-90
2023/10/02 09:06:25;;;;;;;0.10;0.10;;;;;;;;;;5100689;28;20037;-89
2023/10/02 09:11:41;;;;;;;0.10;0.10;;;;;;;;;;5067375;27;20045;-91
2023/10/02 09:14:21;;;;;;;0.10;0.10;;;;;;;;;;5084752;28;20049;-89
2023/10/02 09:19:39;;;;;;;0.10;0.10;;;;;;;;;;5104299;27;20061;-88
2023/10/02 09:22:06;;;;;;;0.10;0.10;;;;;;;;;;5101542;28;20041;-88
2023/10/02 09:24:41;;;;;;;0.20;0.20;;;;;;;;;;5118734;27;20049;-90
2023/10/02 09:27:27;;;;;;;0.20;0.20;;;;;;;;;;5084711;28;20059;-88
2023/10/02 09:30:15;;;;;;;0.10;0.10;;;;;;;;;;5086897;28;20048;-92
2023/10/02 09:32:51;;;;;;;0.10;0.10;;;;;;;;;;5106271;28;20490;-92
2023/10/02 09:35:41;;;;;;;0.10;0.10;;;;;;;;;;5085870;28;20044;-90
2023/10/02 09:38:08;;;;;;;0.20;0.20;;;;;;;;;;5101411;28;20101;-93
2023/10/02 09:43:24;;;;;;;0.50;0.50;;;;;;;;;;5104553;27;20037;-91
2023/10/02 09:45:53;;;;;;;0.20;0.20;;;;;;;;;;5101460;28;20036;-91
2023/10/02 09:48:47;;;;;;;0.10;0.10;;;;;;;;;;5084938;28;20550;-90
2023/10/02 09:51:38;;;;;;;0.10;0.10;;;;;;;;;;5101086;28;20270;-91
2023/10/02 09:54:13;;;;;;;0.20;0.20;;;;;;;;;;5118384;27;20045;-91
2023/10/02 09:57:12;;;;;;;0.20;0.20;;;;;;;;;;5085260;28;20043;-91
2023/10/02 09:59:45;;;;;;;0.20;0.20;;;;;;;;;;5118765;27;20119;-91
2023/10/02 10:07:52;;;;;;;0.20;0.20;;;;;;;;;;5119447;27;20094;-90
2023/10/02 10:13:24;;;;;;;0.10;0.10;;;;;;;;;;5103986;28;20049;-92
2023/10/02 10:15:51;;;;;;;0.10;0.10;;;;;;;;;;5101575;28;20048;-93
2023/10/02 10:18:17;;;;;;;0.10;0.10;;;;;;;;;;5085012;28;20093;-92
2023/10/02 10:20:44;;;;;;;0.20;0.20;;;;;;;;;;5101018;28;20419;-90
2023/10/02 10:23:31;;;;;;;0.10;0.10;;;;;;;;;;5100783;28;20037;-90
2023/10/02 10:26:07;;;;;;;0.20;0.20;;;;;;;;;;5102199;28;20498;-91
2023/10/02 10:28:33;;;;;;;0.20;0.20;;;;;;;;;;5085064;28;20520;-89
2023/10/02 10:31:02;;;;;;;0.20;0.20;;;;;;;;;;5100513;28;20044;-91
2023/10/02 10:33:33;;;;;;;0.10;0.10;;;;;;;;;;5101214;28;20120;-90
2023/10/02 10:36:06;;;;;;;0.20;0.20;;;;;;;;;;5100582;28;20128;-90
2023/10/02 10:38:41;;;;;;;0.10;0.10;;;;;;;;;;5084572;28;20045;-90
2023/10/02 10:41:09;;;;;;;0.20;0.20;;;;;;;;;;5085584;28;20489;-89
2023/10/02 10:43:55;;;;;;;0.10;0.10;;;;;;;;;;5100562;28;20083;-91
2023/10/02 10:46:22;;;;;;;0.13;0.13;;;;;;;;;;5100406;28;20037;-89
2023/10/02 10:48:59;;;;;;;0.20;0.20;;;;;;;;;;5103612;28;20041;-89
2023/10/02 10:51:27;;;;;;;0.22;0.22;;;;;;;;;;5088020;28;20075;-89
2023/10/02 10:53:54;;;;;;;0.10;0.10;;;;;;;;;;5104492;27;20037;-89
2023/10/02 10:56:22;;;;;;;0.10;0.10;;;;;;;;;;5087618;28;20470;-88
2023/10/02 10:58:52;;;;;;;0.20;0.20;;;;;;;;;;5087629;28;20044;-89
2023/10/02 11:01:21;;;;;;;0.17;0.17;;;;;;;;;;5104071;28;20081;-92
2023/10/02 11:03:56;;;;;;;0.10;0.10;;;;;;;;;;5087803;28;20100;-90
2023/10/02 11:06:22;;;;;;;0.10;0.10;;;;;;;;;;5105744;27;20044;-90
2023/10/02 11:09:15;;;;;;;0.20;0.20;;;;;;;;;;5087567;28;20381;-90
2023/10/02 11:11:50;;;;;;;0.20;0.20;;;;;;;;;;5105292;27;20045;-91
2023/10/02 11:14:22;;;;;;;0.10;0.10;;;;;;;;;;5103568;28;20045;-90
2023/10/02 11:16:48;;;;;;;;;;;;;;;;;;5104204;27;20041;-89
2023/10/02 11:19:43;;;;;;;0.10;0.10;;;;;;;;;;5103804;28;20011;-90
2023/10/02 11:22:20;;;;;;;0.22;0.22;;;;;;;;;;5106066;27;20041;-90
2023/10/02 11:24:50;;;;;;;0.10;0.10;;;;;;;;;;5103378;28;20053;-90
2023/10/02 11:27:17;;;;;;;0.10;0.10;;;;;;;;;;5104032;27;20048;-90
2023/10/02 11:30:00;;;;;;;0.10;0.10;;;;;;;;;;5087044;28;20192;-90
2023/10/02 11:32:54;;;;;;;0.13;0.13;;;;;;;;;;5104639;27;20033;-90
2023/10/02 11:35:21;;;;;;;0.10;0.10;;;;;;;;;;5103399;28;20037;-90
2023/10/02 11:37:49;;;;;;;0.20;0.20;;;;;;;;;;5086759;28;20045;-89
2023/10/02 11:40:15;;;;;;;0.10;0.10;;;;;;;;;;5103586;27;20037;-90
2023/10/02 11:42:41;;;;;;;0.10;0.10;;;;;;;;;;5086673;28;20081;-90
2023/10/02 11:45:08;;;;;;;0.20;0.20;;;;;;;;;;5086507;27;20044;-90
2023/10/02 11:47:34;;;;;;;0.20;0.20;;;;;;;;;;5103227;28;20128;-90
2023/10/02 11:50:00;;;;;;;0.20;0.20;;;;;;;;;;5086609;28;20043;-91
2023/10/02 11:52:26;;;;;;;0.20;0.20;;;;;;;;;;5103834;27;20431;-90
2023/10/02 11:54:54;;;;;;;0.10;0.10;;;;;;;;;;5103043;28;20045;-90
2023/10/02 11:57:20;;;;;;;0.10;0.10;;;;;;;;;;5086926;28;20457;-89
2023/10/02 11:59:47;;;;;;;0.10;0.10;;;;;;;;;;5086091;28;20132;-92
2023/10/02 12:02:17;;;;;;;0.20;0.20;;;;;;;;;;5087019;28;20379;-92
2023/10/02 12:04:43;;;;;;;0.10;0.10;;;;;;;;;;5087086;28;20053;-93
2023/10/02 12:07:16;;;;;;;0.10;0.10;;;;;;;;;;5087188;28;20083;-92
2023/10/02 12:09:45;;;;;;;0.20;0.20;;;;;;;;;;5087866;28;20040;-93
2023/10/02 12:12:11;;;;;;;0.20;0.20;;;;;;;;;;5086832;28;20073;-91
2023/10/02 12:14:39;;;;;;;0.20;0.20;;;;;;;;;;5104640;28;20057;-93
2023/10/02 12:17:05;;;;;;;0.20;0.20;;;;;;;;;;5088328;28;20047;-91
2023/10/02 12:19:36;;;;;;;0.20;0.20;;;;;;;;;;5103876;28;20033;-91
2023/10/02 12:22:07;;;;;;;0.10;0.10;;;;;;;;;;5087552;27;20075;-90
2023/10/02 12:24:35;;;;;;;0.20;0.20;;;;;;;;;;5103152;27;20127;-90
2023/10/02 12:27:01;;;;;;;0.10;0.10;;;;;;;;;;5085906;28;20509;-90
2023/10/02 12:29:29;;;;;;;0.10;0.10;;;;;;;;;;5102561;28;20044;-91
2023/10/02 12:31:57;;;;;;;0.10;0.10;;;;;;;;;;5102612;28;20048;-90
2023/10/02 12:34:23;;;;;;;0.10;0.10;;;;;;;;;;5085807;28;20041;-91
2023/10/02 12:36:50;;;;;;;0.10;0.10;;;;;;;;;;5102812;28;20037;-93
2023/10/02 12:39:18;;;;;;;0.10;0.10;;;;;;;;;;5086429;28;20037;-93
2023/10/02 12:41:44;;;;;;;0.20;0.20;;;;;;;;;;5086125;28;20128;-92
2023/10/02 12:44:10;;;;;;;0.20;0.20;;;;;;;;;;5085801;28;20041;-92
2023/10/02 12:46:44;;;;;;;0.10;0.10;;;;;;;;;;5120053;27;20386;-92
2023/10/02 12:49:13;;;;;;;0.38;0.38;;;;;;;;;;5103591;27;20036;-92
2023/10/02 12:51:40;;;;;;;0.20;0.20;;;;;;;;;;5086009;28;20124;-92
2023/10/02 12:54:07;;;;;;;0.10;0.10;;;;;;;;;;5085565;28;20142;-92
2023/10/02 12:56:33;;;;;;;0.10;0.10;;;;;;;;;;5102876;28;20041;-92
2023/10/02 12:58:59;;;;;;;0.10;0.10;;;;;;;;;;5085525;28;20044;-91
2023/10/02 13:01:27;;;;;;;0.10;0.10;;;;;;;;;;5085246;28;20045;-91
2023/10/02 13:03:54;;;;;;;0.10;0.10;;;;;;;;;;5102607;28;20207;-92
2023/10/02 13:06:24;;;;;;;0.10;0.10;;;;;;;;;;5103368;28;20393;-95
2023/10/02 13:08:50;;;;;;;0.20;0.20;;;;;;;;;;5102608;28;20041;-93
2023/10/02 13:11:19;;;;;;;0.10;0.10;;;;;;;;;;5084957;28;20045;-92
2023/10/02 13:13:51;;;;;;;0.10;0.10;;;;;;;;;;5083784;28;20474;-92
2023/10/02 13:16:19;;;;;;;0.20;0.20;;;;;;;;;;5064764;28;20101;-92
2023/10/02 13:18:46;;;;;;;0.10;0.10;;;;;;;;;;5079644;28;20044;-92
2023/10/02 13:21:14;;;;;;;0.10;0.10;;;;;;;;;;5064442;28;20137;-94
2023/10/02 13:23:40;;;;;;;0.10;0.10;;;;;;;;;;5082370;28;20302;-94
2023/10/02 13:26:10;;;;;;;0.10;0.10;;;;;;;;;;5084900;28;20044;-91
2023/10/02 13:28:36;;;;;;;0.20;0.20;;;;;;;;;;5085270;28;20542;-91
2023/10/02 13:31:14;;;;;;;0.10;0.10;;;;;;;;;;5084508;28;20083;-92
2023/10/02 13:33:47;;;;;;;0.10;0.10;;;;;;;;;;5084785;28;20048;-92
2023/10/02 13:36:14;;;;;;;0.20;0.20;;;;;;;;;;5102150;28;20049;-91
2023/10/02 13:38:45;;;;;;;0.10;0.10;;;;;;;;;;5102106;27;20037;-92
2023/10/02 13:41:11;;;;;;;0.10;0.10;;;;;;;;;;5084761;28;20426;-91
2023/10/02 13:43:41;;;;;;;0.10;0.10;;;;;;;;;;5081501;28;20440;-90
2023/10/02 13:46:10;;;;;;;0.20;0.20;;;;;;;;;;5081602;28;20503;-92
2023/10/02 13:48:40;;;;;;;0.10;0.10;;;;;;;;;;5076773;28;20045;-92
2023/10/02 13:51:06;;;;;;;0.20;0.20;;;;;;;;;;5012609;28;20093;-91
2023/10/02 13:53:36;;;;;;;0.20;0.20;;;;;;;;;;5094903;28;20045;-90
2023/10/02 13:56:09;;;;;;;0.20;0.20;;;;;;;;;;5083938;28;20167;-90
2023/10/02 13:58:42;;;;;;;0.10;0.10;;;;;;;;;;5080678;28;20128;-91
2023/10/02 14:01:08;;;;;;;0.10;0.10;;;;;;;;;;5064067;28;20394;-91
2023/10/02 14:03:34;;;;;;;0.20;0.20;;;;;;;;;;5095167;28;20052;-91
2023/10/02 14:06:04;;;;;;;0.10;0.10;;;;;;;;;;5084059;28;20081;-90
2023/10/02 14:08:33;;;;;;;0.20;0.20;;;;;;;;;;5095898;28;20502;-91
2023/10/02 14:11:00;;;;;;;0.10;0.10;;;;;;;;;;5080720;28;20048;-93
2023/10/02 14:13:26;;;;;;;0.10;0.10;;;;;;;;;;5118456;28;20052;-92
2023/10/02 14:15:53;;;;;;;0.10;0.10;;;;;;;;;;5100507;28;20117;-92
2023/10/02 14:18:23;;;;;;;0.10;0.10;;;;;;;;;;5080565;28;20125;-91
2023/10/02 14:20:57;;;;;;;0.10;0.10;;;;;;;;;;5064874;28;20038;-90
2023/10/02 14:23:23;;;;;;;0.20;0.20;;;;;;;;;;5095292;27;20073;-91
2023/10/02 14:25:49;;;;;;;0.10;0.10;;;;;;;;;;5087869;28;20074;-90
2023/10/02 14:28:16;;;;;;;0.20;0.20;;;;;;;;;;5084318;28;20115;-91
2023/10/02 14:30:42;;;;;;;0.10;0.10;;;;;;;;;;5068026;28;20045;-93
2023/10/02 14:33:08;;;;;;;0.10;0.10;;;;;;;;;;5080476;28;20405;-92
2023/10/02 14:35:35;;;;;;;0.10;0.10;;;;;;;;;;5093235;27;20044;-92
2023/10/02 14:38:03;;;;;;;0.10;0.10;;;;;;;;;;5075706;28;20037;-93
2023/10/02 14:40:34;;;;;;;0.20;0.20;;;;;;;;;;5075823;28;20478;-92
2023/10/02 14:43:00;;;;;;;0.20;0.20;;;;;;;;;;5084137;28;20041;-92
2023/10/02 14:45:30;;;;;;;0.20;0.20;;;;;;;;;;5101497;28;20113;-94
2023/10/02 14:47:57;;;;;;;0.10;0.10;;;;;;;;;;5084093;28;20037;-93
2023/10/02 14:50:28;;;;;;;0.10;0.10;;;;;;;;;;5083980;28;20049;-92
2023/10/02 14:52:58;;;;;;;0.20;0.20;;;;;;;;;;5104159;28;20032;-92
2023/10/02 14:55:27;;;;;;;0.10;0.10;;;;;;;;;;5105386;27;20049;-93
2023/10/02 14:57:56;;;;;;;0.10;0.10;;;;;;;;;;5084414;28;20438;-93
2023/10/02 15:00:22;;;;;;;0.10;0.10;;;;;;;;;;5067134;28;20037;-92
2023/10/02 15:02:52;;;;;;;0.20;0.20;;;;;;;;;;5068665;28;20034;-93
2023/10/02 15:05:18;;;;;;;0.17;0.17;;;;;;;;;;5014045;28;20053;-91
2023/10/02 15:07:48;;;;;;;0.10;0.10;;;;;;;;;;5086992;28;20029;-90
2023/10/02 15:10:16;;;;;;;0.10;0.10;;;;;;;;;;5086556;28;20120;-91
2023/10/02 15:12:42;;;;;;;0.20;0.20;;;;;;;;;;5103867;27;20041;-91
2023/10/02 15:15:13;;;;;;;0.17;0.17;;;;;;;;;;5086637;28;20037;-90
2023/10/02 15:17:46;;;;;;;0.15;0.15;;;;;;;;;;5103969;28;20485;-90
2023/10/02 15:20:16;;;;;;;0.10;0.10;;;;;;;;;;5103871;28;20120;-90
2023/10/02 15:22:43;;;;;;;0.17;0.17;;;;;;;;;;5104419;27;20099;-90
2023/10/02 15:25:14;;;;;;;0.20;0.20;;;;;;;;;;5103520;28;20041;-90
2023/10/02 15:27:45;;;;;;;0.10;0.10;;;;;;;;;;5104421;27;20048;-90
2023/10/02 15:30:11;;;;;;;0.10;0.10;;;;;;;;;;5087438;28;20478;-93
2023/10/02 15:32:38;;;;;;;0.10;0.10;;;;;;;;;;5120941;27;20049;-94
2023/10/02 15:35:05;;;;;;;0.10;0.10;;;;;;;;;;5085579;28;20607;-90
2023/10/02 15:37:33;;;;;;;0.10;0.10;;;;;;;;;;5089000;28;20033;-93
2023/10/02 15:40:04;;;;;;;0.10;0.10;;;;;;;;;;5087477;28;20504;-92
2023/10/02 15:42:30;;;;;;;0.20;0.20;;;;;;;;;;5087862;28;20037;-91
2023/10/02 15:44:56;;;;;;;0.20;0.20;;;;;;;;;;5121025;27;20037;-92
2023/10/02 15:47:22;;;;;;;0.10;0.10;;;;;;;;;;5121150;27;20097;-92